Terminal Aerodrome Forecast
Issued by NWS

Home | Current Version | Previous Version | Text Only | Print | Product List | Glossary On
Versions: 1 2 3 4 5 6 7 8 9 10 11 12
397
FTUS45 KABQ 061742
TAFTCC
TAF
KTCC 061742Z 0618/0718 19020G30KT P6SM FEW120
     FM070200 17015G25KT P6SM SCT110
      TEMPO 0703/0707 BKN100
     FM071500 22020G29KT P6SM SKC=

USA.gov is the U.S. government's official web portal to all federal, state and local government web resources and services.